createdAt,value
2022-10-02T00:00:02.850Z,11.60
2022-10-02T00:03:22.694Z,11.70
2022-10-02T00:06:33.654Z,11.70
2022-10-02T00:09:47.908Z,11.70
2022-10-02T00:13:02.217Z,11.76
2022-10-02T00:16:24.948Z,11.80
2022-10-02T00:19:32.828Z,11.80
2022-10-02T00:22:53.288Z,11.80
2022-10-02T00:26:08.578Z,11.80
2022-10-02T00:29:35.034Z,11.72
2022-10-02T00:32:57.393Z,11.70
2022-10-02T00:36:24.438Z,11.70
2022-10-02T00:39:47.885Z,11.70
2022-10-02T00:43:11.622Z,11.70
2022-10-02T00:46:41.287Z,11.70
2022-10-02T00:50:16.497Z,11.70
2022-10-02T00:53:44.012Z,11.70
2022-10-02T00:57:07.232Z,11.70
2022-10-02T01:00:17.547Z,11.62
2022-10-02T01:03:30.378Z,11.62
2022-10-02T01:06:38.954Z,11.64
2022-10-02T01:09:49.551Z,11.62
2022-10-02T01:12:59.850Z,11.60
2022-10-02T01:16:14.308Z,11.64
2022-10-02T01:19:36.627Z,11.60
2022-10-02T01:22:56.332Z,11.60
2022-10-02T01:26:04.771Z,11.60
2022-10-02T01:29:13.036Z,11.60
2022-10-02T01:32:21.369Z,11.60
2022-10-02T01:35:33.895Z,11.60
2022-10-02T01:38:43.431Z,11.60
2022-10-02T01:41:51.425Z,11.60
2022-10-02T01:45:00.127Z,11.60
2022-10-02T01:48:21.248Z,11.58
2022-10-02T01:51:57.137Z,11.60
2022-10-02T01:55:23.764Z,11.60
2022-10-02T01:58:46.832Z,11.50
2022-10-02T02:02:08.608Z,11.54
2022-10-02T02:05:30.820Z,11.54
2022-10-02T02:08:49.224Z,11.54
2022-10-02T02:12:09.547Z,11.50
2022-10-02T02:15:25.237Z,11.52
2022-10-02T02:18:41.221Z,11.50
2022-10-02T02:21:55.659Z,11.50
2022-10-02T02:25:09.648Z,11.50
2022-10-02T02:28:23.160Z,11.50
2022-10-02T02:31:38.231Z,11.50
2022-10-02T02:34:52.798Z,11.50
2022-10-02T02:38:07.837Z,11.50
2022-10-02T02:41:21.919Z,11.50
2022-10-02T02:44:36.455Z,11.50
2022-10-02T02:47:50.764Z,11.50
2022-10-02T02:51:05.133Z,11.50
2022-10-02T02:54:21.526Z,11.52
2022-10-02T02:57:38.544Z,11.58
2022-10-02T03:00:46.727Z,11.56
2022-10-02T03:03:54.678Z,11.58
2022-10-02T03:07:07.551Z,11.60
2022-10-02T03:10:24.669Z,11.60
2022-10-02T03:13:52.237Z,11.60
2022-10-02T03:17:13.649Z,11.60
2022-10-02T03:20:35.895Z,11.60
2022-10-02T03:24:02.763Z,11.60
2022-10-02T03:27:19.081Z,11.60
2022-10-02T03:30:27.515Z,11.60
2022-10-02T03:33:39.621Z,11.60
2022-10-02T03:36:48.020Z,11.60
2022-10-02T03:39:58.839Z,11.60
2022-10-02T03:43:08.378Z,11.50
2022-10-02T03:46:16.619Z,11.50
2022-10-02T03:49:24.735Z,11.50
2022-10-02T03:52:36.206Z,11.48
2022-10-02T03:55:49.032Z,11.46
2022-10-02T03:59:02.738Z,11.40
2022-10-02T04:02:24.627Z,11.40
2022-10-02T04:05:38.210Z,11.40
2022-10-02T04:08:54.894Z,11.40
2022-10-02T04:12:09.812Z,11.30
2022-10-02T04:15:29.918Z,11.30
2022-10-02T04:18:46.885Z,11.30
2022-10-02T04:22:01.250Z,11.30
2022-10-02T04:25:15.955Z,11.30
2022-10-02T04:28:30.287Z,11.30
2022-10-02T04:31:38.774Z,11.30
2022-10-02T04:34:47.129Z,11.30
2022-10-02T04:38:28.027Z,11.30
2022-10-02T04:41:59.076Z,11.30
2022-10-02T04:45:34.595Z,11.30
2022-10-02T04:49:16.910Z,11.30
2022-10-02T04:52:45.184Z,11.30
2022-10-02T04:56:15.501Z,11.30
2022-10-02T04:59:52.046Z,11.30
2022-10-02T05:03:23.957Z,11.30
2022-10-02T05:06:55.151Z,11.30
2022-10-02T05:10:24.339Z,11.30
2022-10-02T05:14:06.049Z,11.26
2022-10-02T05:17:43.016Z,11.20
2022-10-02T05:21:10.098Z,11.20
2022-10-02T05:24:41.437Z,11.20
2022-10-02T05:28:15.416Z,11.26
2022-10-02T05:31:41.752Z,11.30
2022-10-02T05:35:17.205Z,11.40
2022-10-02T05:38:53.271Z,11.50
2022-10-02T05:42:12.242Z,11.60
2022-10-02T05:45:29.898Z,11.68
2022-10-02T05:48:48.813Z,11.74
2022-10-02T05:52:05.176Z,11.86
2022-10-02T05:55:24.589Z,11.96
2022-10-02T05:58:39.820Z,12.02
2022-10-02T06:01:53.906Z,12.10
2022-10-02T06:05:15.054Z,12.20
2022-10-02T06:08:31.845Z,12.30
2022-10-02T06:11:47.983Z,12.40
2022-10-02T06:15:04.407Z,12.40
2022-10-02T06:18:18.683Z,12.50
2022-10-02T06:21:39.826Z,12.58
2022-10-02T06:24:55.432Z,12.60
2022-10-02T06:28:13.064Z,12.70
2022-10-02T06:31:35.231Z,12.80
2022-10-02T06:34:47.996Z,12.90
2022-10-02T06:38:25.444Z,12.90
2022-10-02T06:41:49.119Z,13.00
2022-10-02T06:45:08.791Z,13.00
2022-10-02T06:48:33.114Z,13.10
2022-10-02T06:51:59.532Z,13.20
2022-10-02T06:55:31.391Z,13.20
2022-10-02T06:58:55.553Z,13.30
2022-10-02T07:02:23.334Z,13.30
2022-10-02T07:06:04.737Z,13.40
2022-10-02T07:09:44.756Z,13.50
2022-10-02T07:13:24.091Z,13.60
2022-10-02T07:16:52.285Z,13.60
2022-10-02T07:20:24.344Z,13.70
2022-10-02T07:23:57.769Z,13.80
2022-10-02T07:27:20.445Z,13.90
2022-10-02T07:30:35.843Z,14.00
2022-10-02T07:34:07.677Z,14.10
2022-10-02T07:37:29.458Z,14.20
2022-10-02T07:40:51.134Z,14.30
2022-10-02T07:44:15.886Z,14.30
2022-10-02T07:47:44.866Z,14.40
2022-10-02T07:51:30.917Z,14.50
2022-10-02T07:55:15.328Z,14.50
2022-10-02T07:58:37.167Z,14.62
2022-10-02T08:01:48.176Z,14.70
2022-10-02T08:05:02.951Z,14.70
2022-10-02T08:08:21.704Z,14.80
2022-10-02T08:11:37.547Z,14.82
2022-10-02T08:14:48.217Z,14.90
2022-10-02T08:18:22.802Z,15.00
2022-10-02T08:21:37.686Z,15.20
2022-10-02T08:24:52.493Z,15.30
2022-10-02T08:28:06.968Z,15.40
2022-10-02T08:31:17.293Z,15.50
2022-10-02T08:34:27.548Z,15.50
2022-10-02T08:37:47.206Z,15.66
2022-10-02T08:42:04.180Z,15.70
2022-10-02T08:45:52.540Z,15.82
2022-10-02T08:50:05.106Z,15.90
2022-10-02T08:54:04.458Z,16.04
2022-10-02T08:57:47.289Z,16.20
2022-10-02T09:01:17.517Z,16.28
2022-10-02T09:05:13.046Z,16.34
2022-10-02T09:09:15.771Z,16.42
2022-10-02T09:13:12.148Z,16.50
2022-10-02T09:16:38.298Z,16.60
2022-10-02T09:20:11.481Z,16.50
2022-10-02T09:23:57.973Z,16.50
2022-10-02T09:27:55.085Z,16.50
2022-10-02T09:31:52.774Z,16.70
2022-10-02T09:35:38.653Z,16.90
2022-10-02T09:39:30.733Z,16.90
2022-10-02T09:43:37.649Z,16.80
2022-10-02T09:47:35.788Z,16.90
2022-10-02T09:51:17.612Z,16.96
2022-10-02T09:55:15.702Z,16.80
2022-10-02T09:59:23.808Z,16.90
2022-10-02T10:03:13.368Z,16.98
2022-10-02T10:06:54.852Z,17.04
2022-10-02T10:10:53.860Z,17.30
2022-10-02T10:14:44.016Z,17.40
2022-10-02T10:18:48.135Z,17.40
2022-10-02T10:22:39.180Z,17.40
2022-10-02T10:26:34.829Z,17.20
2022-10-02T10:30:26.710Z,17.24
2022-10-02T10:34:46.645Z,17.10
2022-10-02T10:38:34.744Z,16.90
2022-10-02T10:42:28.062Z,16.80
2022-10-02T10:46:06.447Z,16.72
2022-10-02T10:50:02.570Z,16.80
2022-10-02T10:53:57.221Z,16.94
2022-10-02T10:57:23.705Z,17.30
2022-10-02T11:00:49.175Z,17.60
2022-10-02T11:04:41.943Z,17.80
2022-10-02T11:08:19.345Z,17.92
2022-10-02T11:11:40.495Z,17.90
2022-10-02T11:15:13.561Z,18.20
2022-10-02T11:18:43.296Z,18.40
2022-10-02T11:22:31.134Z,18.64
2022-10-02T11:26:25.142Z,19.00
2022-10-02T11:30:26.971Z,19.10
2022-10-02T11:34:16.797Z,19.10
2022-10-02T11:37:50.253Z,18.90
2022-10-02T11:41:28.832Z,18.90
2022-10-02T11:45:02.256Z,18.86
2022-10-02T11:48:46.751Z,19.00
2022-10-02T11:52:33.296Z,19.10
2022-10-02T11:56:03.505Z,19.26
2022-10-02T11:59:30.955Z,19.42
2022-10-02T12:02:51.161Z,19.50
2022-10-02T12:06:13.343Z,19.38
2022-10-02T12:09:36.575Z,19.10
2022-10-02T12:12:59.202Z,19.00
2022-10-02T12:16:25.099Z,18.60
2022-10-02T12:20:14.123Z,18.16
2022-10-02T12:24:00.158Z,17.80
2022-10-02T12:27:18.862Z,17.40
2022-10-02T12:30:35.312Z,17.16
2022-10-02T12:34:01.500Z,16.96
2022-10-02T12:37:22.450Z,16.80
2022-10-02T12:40:44.061Z,16.70
2022-10-02T12:44:29.413Z,17.00
2022-10-02T12:48:25.232Z,17.20
2022-10-02T12:51:40.936Z,17.10
2022-10-02T12:55:51.649Z,17.10
2022-10-02T12:59:13.026Z,16.90
2022-10-02T13:03:09.800Z,16.82
2022-10-02T13:06:59.704Z,16.70
2022-10-02T13:10:19.610Z,17.00
2022-10-02T13:13:52.415Z,17.00
2022-10-02T13:17:24.262Z,17.00
2022-10-02T13:20:42.845Z,16.80
2022-10-02T13:24:07.793Z,16.60
2022-10-02T13:27:31.993Z,16.50
2022-10-02T13:30:49.561Z,16.40
2022-10-02T13:34:20.081Z,16.40
2022-10-02T13:37:48.439Z,16.28
2022-10-02T13:41:14.173Z,16.10
2022-10-02T13:44:37.922Z,16.00
2022-10-02T13:47:57.523Z,16.00
2022-10-02T13:51:14.203Z,15.92
2022-10-02T13:54:45.451Z,16.00
2022-10-02T13:58:25.509Z,16.00
2022-10-02T14:01:51.222Z,15.90
2022-10-02T14:05:12.241Z,15.80
2022-10-02T14:08:53.073Z,15.80
2022-10-02T14:12:26.113Z,15.70
2022-10-02T14:15:54.701Z,15.60
2022-10-02T14:19:32.691Z,15.42
2022-10-02T14:23:02.685Z,15.30
2022-10-02T14:26:28.109Z,15.20
2022-10-02T14:29:50.424Z,15.10
2022-10-02T14:33:10.239Z,15.08
2022-10-02T14:36:21.629Z,14.98
2022-10-02T14:39:39.104Z,14.80
2022-10-02T14:43:38.886Z,14.80
2022-10-02T14:46:56.588Z,14.70
2022-10-02T14:50:34.302Z,14.60
2022-10-02T14:54:14.522Z,14.60
2022-10-02T14:57:58.673Z,14.60
2022-10-02T15:01:23.505Z,14.52
2022-10-02T15:04:47.990Z,14.50
2022-10-02T15:08:08.398Z,14.50
2022-10-02T15:11:57.715Z,14.50
2022-10-02T15:15:23.744Z,14.42
2022-10-02T15:18:53.012Z,14.40
2022-10-02T15:22:25.249Z,14.40
2022-10-02T15:26:11.187Z,14.40
2022-10-02T15:29:46.290Z,14.30
2022-10-02T15:33:20.939Z,14.30
2022-10-02T15:37:12.879Z,14.20
2022-10-02T15:40:46.277Z,14.10
2022-10-02T15:44:25.966Z,14.10
2022-10-02T15:48:20.214Z,14.00
2022-10-02T15:52:11.967Z,14.00
2022-10-02T15:55:39.780Z,13.90
2022-10-02T15:59:16.663Z,13.90
2022-10-02T16:02:54.687Z,13.80
2022-10-02T16:06:14.273Z,13.80
2022-10-02T16:09:50.700Z,13.72
2022-10-02T16:13:46.293Z,13.70
2022-10-02T16:17:41.826Z,13.70
2022-10-02T16:21:24.056Z,13.68
2022-10-02T16:25:07.619Z,13.64
2022-10-02T16:28:45.174Z,13.60
2022-10-02T16:32:12.940Z,13.60
2022-10-02T16:36:08.792Z,13.56
2022-10-02T16:39:43.532Z,13.60
2022-10-02T16:43:13.139Z,13.50
2022-10-02T16:46:29.263Z,13.50
2022-10-02T16:49:52.980Z,13.50
2022-10-02T16:53:12.910Z,13.50
2022-10-02T16:56:32.516Z,13.50
2022-10-02T16:59:54.503Z,13.50
2022-10-02T17:03:11.680Z,13.50
2022-10-02T17:06:34.878Z,13.50
2022-10-02T17:09:53.704Z,13.50
2022-10-02T17:13:28.430Z,13.42
2022-10-02T17:16:46.661Z,13.40
2022-10-02T17:20:16.792Z,13.40
2022-10-02T17:23:35.890Z,13.40
2022-10-02T17:26:54.212Z,13.40
2022-10-02T17:30:16.767Z,13.40
2022-10-02T17:33:32.515Z,13.40
2022-10-02T17:36:50.430Z,13.40
2022-10-02T17:40:22.689Z,13.40
2022-10-02T17:43:42.163Z,13.40
2022-10-02T17:47:34.286Z,13.40
2022-10-02T17:51:14.180Z,13.40
2022-10-02T17:55:09.407Z,13.40
2022-10-02T17:58:28.701Z,13.40
2022-10-02T18:05:49.025Z,13.30
2022-10-02T18:09:53.575Z,13.30
2022-10-02T18:13:27.942Z,13.30
2022-10-02T18:16:50.903Z,13.30
2022-10-02T18:20:16.354Z,13.30
2022-10-02T18:23:51.295Z,13.24
2022-10-02T18:27:39.630Z,13.20
2022-10-02T18:31:00.512Z,13.20
2022-10-02T18:34:42.760Z,13.20
2022-10-02T18:38:08.706Z,13.20
2022-10-02T18:41:44.341Z,13.20
2022-10-02T18:45:10.418Z,13.20
2022-10-02T18:48:49.179Z,13.12
2022-10-02T18:52:47.366Z,13.10
2022-10-02T18:56:07.791Z,13.10
2022-10-02T18:59:35.668Z,13.10
2022-10-02T19:03:15.877Z,13.10
2022-10-02T19:06:44.182Z,13.10
2022-10-02T19:10:40.536Z,13.00
2022-10-02T19:13:53.595Z,13.00
2022-10-02T19:17:05.492Z,13.00
2022-10-02T19:20:44.575Z,13.00
2022-10-02T19:24:00.530Z,13.00
2022-10-02T19:27:26.546Z,13.00
2022-10-02T19:30:47.866Z,13.00
2022-10-02T19:34:03.642Z,13.00
2022-10-02T19:37:17.567Z,12.98
2022-10-02T19:40:33.630Z,12.90
2022-10-02T19:43:54.875Z,12.90
2022-10-02T19:47:13.241Z,12.90
2022-10-02T19:50:35.264Z,12.90
2022-10-02T19:53:50.818Z,12.90
2022-10-02T19:57:16.651Z,12.88
2022-10-02T20:00:25.605Z,12.80
2022-10-02T20:03:36.188Z,12.80
2022-10-02T20:06:49.993Z,12.80
2022-10-02T20:10:03.353Z,12.80
2022-10-02T20:13:25.055Z,12.76
2022-10-02T20:16:54.580Z,12.70
2022-10-02T20:20:16.841Z,12.70
2022-10-02T20:23:31.508Z,12.70
2022-10-02T20:26:44.331Z,12.70
2022-10-02T20:30:01.848Z,12.62
2022-10-02T20:33:19.410Z,12.64
2022-10-02T20:36:33.743Z,12.60
2022-10-02T20:39:47.450Z,12.60
2022-10-02T20:43:02.522Z,12.60
2022-10-02T20:46:42.238Z,12.60
2022-10-02T20:50:36.499Z,12.60
2022-10-02T20:54:36.351Z,12.56
2022-10-02T20:58:07.783Z,12.56
2022-10-02T21:01:43.493Z,12.50
2022-10-02T21:05:33.925Z,12.50
2022-10-02T21:09:16.133Z,12.50
2022-10-02T21:12:47.857Z,12.44
2022-10-02T21:16:34.281Z,12.40
2022-10-02T21:20:49.587Z,12.40
2022-10-02T21:24:51.711Z,12.40
2022-10-02T21:29:05.477Z,12.40
2022-10-02T21:32:39.310Z,12.30
2022-10-02T21:35:56.957Z,12.30
2022-10-02T21:39:51.600Z,12.30
2022-10-02T21:43:48.947Z,12.22
2022-10-02T21:47:47.865Z,12.20
2022-10-02T21:51:46.484Z,12.20
2022-10-02T21:55:43.157Z,12.12
2022-10-02T21:59:36.425Z,12.10
2022-10-02T22:03:22.571Z,12.08
2022-10-02T22:06:51.164Z,12.00
2022-10-02T22:10:12.814Z,12.00
2022-10-02T22:13:34.056Z,12.00
2022-10-02T22:16:57.744Z,12.00
2022-10-02T22:20:44.996Z,12.00
2022-10-02T22:24:44.562Z,12.00
2022-10-02T22:28:11.489Z,11.94
2022-10-02T22:32:39.879Z,11.94
2022-10-02T22:36:35.419Z,11.98
2022-10-02T22:39:58.421Z,12.00
2022-10-02T22:43:19.566Z,11.98
2022-10-02T22:46:47.425Z,11.98
2022-10-02T22:50:10.375Z,11.96
2022-10-02T22:53:33.628Z,11.90
2022-10-02T22:56:51.799Z,11.92
2022-10-02T23:00:13.429Z,11.90
2022-10-02T23:03:31.645Z,11.90
2022-10-02T23:06:50.627Z,11.90
2022-10-02T23:10:06.318Z,11.90
2022-10-02T23:13:27.635Z,11.90
2022-10-02T23:16:45.567Z,11.86
2022-10-02T23:20:03.264Z,11.82
2022-10-02T23:23:24.659Z,11.80
2022-10-02T23:26:41.913Z,11.80
2022-10-02T23:30:00.736Z,11.72
2022-10-02T23:33:22.361Z,11.70
2022-10-02T23:36:45.826Z,11.70
2022-10-02T23:40:05.058Z,11.70
2022-10-02T23:43:21.367Z,11.60
2022-10-02T23:46:36.578Z,11.60
2022-10-02T23:49:50.145Z,11.60
2022-10-02T23:53:35.331Z,11.54
2022-10-02T23:57:29.698Z,11.50
